Algoscotia — VAAP — position and weather

sailwx.info

Track history (hours):
 
Tides and Currents Weather Stations Pressure Air Temp Water Temp Dewpoint Dewpoint Depression Visibility Wind Speed Wind Dir Waves Ship Positions

Algoscotia

Last reported at 2017-Nov-20 15:00 UTC. Time now 2017-Nov-21 15:19 UTC.
Position N 42°42' W 080°12'.

Length 148.8 m; beam 23.76 m; draft 3.6 m.

Type: Ship (hazmat cat B). MMSI: 316009560.

Wind from 250 at 21 knots

Barometer 1017.2 mb
Air temperature 3.4 ° C
Dewpoint -0.2 ° C

Date/timePositionNaut miles runAvg speedWind from/ knotsBaromVisibWave heightAir tempDewpointWater temp
2017-Nov-20 15:00N 42°42' W 080°12'0 0.0 250 / 211017.2 3.4-0.2
2017-Nov-20 14:00N 42°42' W 080°12'0 0.0 250 / 211017.3 2.4-1.5
2017-Nov-20 12:00N 42°42' W 080°12'11 5.3 250 / 191015.1 0.4-4.2
2017-Nov-20 10:00N 42°48' W 080°00'0 0.0 270 / 141014.3 -1.4-5.9
2017-Nov-20 09:00N 42°48' W 080°00'0 0.0 260 / 111013.8 -1.5-6.6
2017-Nov-20 08:00N 42°48' W 080°00'0 0.0 270 / 151013.7 -1.1-7.0
2017-Nov-20 07:00N 42°48' W 080°00'0 0.0 260 / 141013.0 -1.0-6.7
2017-Nov-20 06:00N 42°48' W 080°00'0 0.0 270 / 141012.7 -0.8-5.9
2017-Nov-20 05:00N 42°48' W 080°00'0 0.0 260 / 151012.1 -0.5-4.2
2017-Nov-20 04:00N 42°48' W 080°00'0 0.0 270 / 131011.6 -0.4-3.3
2017-Nov-20 03:00N 42°48' W 080°00'0 0.0 270 / 121011.1 0.1-4.2
2017-Nov-20 02:00N 42°48' W 080°00'0 0.0 290 / 41010.3 -0.9-2.3
2017-Nov-20 01:00N 42°48' W 080°00'0 0.0 300 / 71009.7 -0.9-2.4
2017-Nov-20 00:00N 42°48' W 080°00'0 0.0 280 / 101009.0 -0.6-2.5
2017-Nov-19 23:00N 42°48' W 080°00'0 0.0 300 / 121008.1 -0.1-3.0
2017-Nov-19 22:00N 42°48' W 080°00'0 0.0 310 / 141007.6 0.5-2.1
2017-Nov-19 21:00N 42°48' W 080°00'0 0.0 270 / 131006.2 1.2-1.9
2017-Nov-19 20:00N 42°48' W 080°00'0 0.0 280 / 131006.1 2.8-2.6
2017-Nov-19 19:00N 42°48' W 080°00'0 0.0 300 / 141005.0 2.6-2.1
2017-Nov-19 18:00N 42°48' W 080°00'0 0.0 280 / 131005.7 3.1-1.6
2017-Nov-19 17:00N 42°48' W 080°00'0 0.0 260 / 181005.2 3.0-1.3
2017-Nov-19 16:00N 42°48' W 080°00'0 0.0 260 / 201004.4 2.6-0.4
2017-Nov-19 15:00N 42°48' W 080°00'0 0.0 260 / 141004.2 3.1 0.1
2017-Nov-19 14:00N 42°48' W 080°00'0 0.0 280 / 71002.9 2.6-0.0
2017-Nov-19 13:00N 42°48' W 080°00'0 0.0 280 / 51001.8 2.2-0.4
2017-Nov-19 12:00N 42°48' W 080°00'0 0.0 300 / 121000.0 2.5-0.3
2017-Nov-19 11:00N 42°48' W 080°00'0 0.0 310 / 14998.7 2.7 0.2
2017-Nov-19 10:00N 42°48' W 080°00'0 0.0 300 / 14997.2 2.8-0.0
2017-Nov-19 09:00N 42°48' W 080°00'0 0.0 300 / 14995.1 2.9 0.7
2017-Nov-19 08:00N 42°48' W 080°00'0 0.0 300 / 12992.7 2.6 1.4
2017-Nov-19 07:00N 42°48' W 080°00'0 0.0 320 / 18989.1 2.2 1.5
2017-Nov-19 05:00N 42°48' W 080°00'0 0.0 330 / 18986.3 6.0 5.4
2017-Nov-19 04:00N 42°48' W 080°00'0 0.0 330 / 15985.3 7.5 7.3
2017-Nov-19 03:00N 42°48' W 080°00'0 0.0 010 / 11985.4 7.8 7.7
2017-Nov-19 02:00N 42°48' W 080°00'0 0.0 030 / 5986.0 8.4 8.3
2017-Nov-19 01:00N 42°48' W 080°00'0 0.0 230 / 1987.3 9.1 9.1
2017-Nov-19 00:00N 42°48' W 080°00'0 0.0 988.2 9.1 9.1
2017-Nov-18 23:00N 42°48' W 080°00'7 7.4 190 / 6989.4 9.1 9.1
2017-Nov-18 22:00N 42°42' W 080°06'4 4.4 160 / 12990.6 9.1 9.1
2017-Nov-18 21:00N 42°42' W 080°12'0 0.0 170 / 17991.8 8.9 8.8
2017-Nov-18 20:00N 42°42' W 080°12'0 0.0 170 / 17992.7 8.8 8.5
2017-Nov-18 19:00N 42°42' W 080°12'0 0.0 180 / 16994.2 8.6 7.8
2017-Nov-18 17:00N 42°42' W 080°12'0 0.0 190 / 22997.6 7.9 7.8
2017-Nov-18 16:00N 42°42' W 080°12'0 0.0 200 / 19998.5 8.1 7.6
2017-Nov-18 15:00N 42°42' W 080°12'0 0.0 200 / 25998.9 8.1 7.1
2017-Nov-18 11:00N 42°42' W 080°12'9 8.8 200 / 221002.4 7.1 5.0
2017-Nov-18 10:00N 42°42' W 080°00'2311.4 210 / 221003.2 7.7 3.8
2017-Nov-18 08:00N 42°48' W 079°30'9 8.8 190 / 221005.2 8.9 0.9
2017-Nov-18 07:00N 42°48' W 079°18'7 3.7 170 / 191007.1 8.0-1.2
2017-Nov-18 05:00N 42°54' W 079°12'1212.0 130 / 7 2.6-1.0
2017-Nov-18 04:00N 43°06' W 079°12'0 0.0 150 / 6 1.1-1.8
2017-Nov-18 03:00N 43°06' W 079°12'0 0.0 140 / 6 1.6-2.0
2017-Nov-18 02:00N 43°06' W 079°12'6 6.0 110 / 2 0.9-1.6
2017-Nov-18 01:00N 43°12' W 079°12'0 0.0 040 / 21011.6 1.3-1.6
2017-Nov-18 00:00N 43°12' W 079°12'0 0.0 120 / 51014.1 1.1-1.7
2017-Nov-17 23:00N 43°12' W 079°12'0 0.0 100 / 31017.3 1.4-2.1
2017-Nov-17 22:00N 43°12' W 079°12'6 6.0 110 / 51019.5 1.8-2.5
2017-Nov-17 21:00N 43°18' W 079°12'1414.4 140 / 41020.4 1.0-3.3
2017-Nov-17 20:00N 43°24' W 078°54'1110.6 260 / 51021.5 0.2-3.8
2017-Nov-17 19:00N 43°30' W 078°42'1313.1 260 / 121022.2 -0.3-4.4
2017-Nov-17 18:00N 43°30' W 078°24'1110.6 240 / 91023.0 -0.5-4.9
2017-Nov-17 17:00N 43°36' W 078°12'1313.0 300 / 121023.7 -1.3-6.9
2017-Nov-17 16:00N 43°36' W 077°54'1110.6 310 / 121024.3 -1.9-7.8
2017-Nov-17 15:00N 43°42' W 077°42'1313.0 310 / 141024.0 -2.4-8.1
2017-Nov-17 14:00N 43°42' W 077°24'1414.3 320 / 201023.6 -2.7-8.1
2017-Nov-17 13:00N 43°48' W 077°06'1110.5 320 / 181023.1 -3.9-9.7
2017-Nov-17 12:00N 43°54' W 076°54'1313.0 330 / 211021.8 -3.3-8.2
2017-Nov-17 11:00N 43°54' W 076°36'1514.8 320 / 191021.0 -2.3-6.0
2017-Nov-17 10:00N 44°06' W 076°24'1010.5 330 / 181019.9 -1.9-6.2
2017-Nov-17 09:00N 44°12' W 076°12'1010.5 330 / 151018.6 -1.7-6.4
2017-Nov-17 08:00N 44°18' W 076°00'7 7.4 310 / 131017.7 -1.1-5.5
2017-Nov-17 07:00N 44°24' W 075°54'7 7.4 320 / 16 -0.6-4.8
2017-Nov-17 06:00N 44°30' W 075°48'1514.7 310 / 14 -0.8-4.9
2017-Nov-17 05:00N 44°42' W 075°36'1010.4 330 / 20 -0.8-4.9
2017-Nov-17 04:00N 44°48' W 075°24'4 4.3 300 / 19 -0.1-3.5
2017-Nov-17 03:00N 44°48' W 075°18'7 7.4 300 / 14 0.5-3.0
2017-Nov-17 02:00N 44°54' W 075°12'1312.8 290 / 20 1.1-1.5
2017-Nov-17 01:00N 44°54' W 074°54'4 4.3 270 / 23 2.1 0.9
2017-Nov-17 00:00N 44°54' W 074°48'0 0.0 280 / 16 3.1 1.7
2017-Nov-16 22:00N 44°54' W 074°48'0 0.0 230 / 12 5.7 4.5
2017-Nov-16 21:00N 44°54' W 074°48'1010.4 240 / 12 6.3 4.2
2017-Nov-16 20:00N 45°00' W 074°36'7 7.3 220 / 14 6.8 4.5
2017-Nov-16 19:00N 45°06' W 074°30'1010.4 230 / 20 7.0 4.1
2017-Nov-16 18:00N 45°12' W 074°18'4 9.6 210 / 26 7.9 3.8
2017-Nov-16 17:35N 45°14' W 074°13'5 8.8
2017-Nov-16 17:00N 45°12' W 074°06'312.8 230 / 19 8.8 3.8
2017-Nov-16 16:45N 45°13' W 074°02'2 9.4
2017-Nov-16 16:30N 45°15' W 073°59'4 8.9
2017-Nov-16 16:01N 45°18' W 073°56'169.7
2017-Nov-16 16:00N 45°18' W 073°54'1 2.3 180 / 10 7.2 4.1
2017-Nov-16 15:31N 45°18' W 073°55'1 1.1
2017-Nov-16 15:01N 45°19' W 073°55'176.9
2017-Nov-16 15:00N 45°18' W 073°54'2 3.7 160 / 13 6.6 3.6
2017-Nov-16 14:30N 45°20' W 073°55'4 8.3
2017-Nov-16 14:00N 45°22' W 073°50'2543.6
2017-Nov-16 14:00N 45°24' W 073°48'3 6.5 160 / 17 5.9 3.2
2017-Nov-16 13:30N 45°24' W 073°44'3 6.6
2017-Nov-16 13:00N 45°24' W 073°39'2132.7
2017-Nov-16 13:00N 45°24' W 073°36'1 1.6 130 / 5 4.9 2.6
2017-Nov-16 12:31N 45°24' W 073°35'1 2.0
2017-Nov-16 12:01N 45°24' W 073°34'299.4
2017-Nov-16 12:00N 45°24' W 073°36'3 6.7 140 / 2 5.1 2.6
2017-Nov-16 11:31N 45°25' W 073°32'3 6.6
2017-Nov-16 11:00N 45°28' W 073°30'2 2.1
2017-Nov-16 10:00N 45°30' W 073°30'3 3.8 170 / 7 5.1 1.5
2017-Nov-16 09:15N 45°33' W 073°32'413.9
2017-Nov-16 09:00N 45°36' W 073°30'0 0.0 170 / 22 5.6 0.4
2017-Nov-16 08:00N 45°36' W 073°30'0 0.0 170 / 21 5.5-0.2
2017-Nov-16 07:00N 45°36' W 073°30'0 0.0 160 / 20 5.3-0.6
2017-Nov-16 06:00N 45°36' W 073°30'0 0.0 140 / 11 3.6-1.4
2017-Nov-16 05:00N 45°36' W 073°30'0 0.0 130 / 8 2.8-2.0
2017-Nov-16 04:00N 45°36' W 073°30'0 0.0 130 / 9 2.9-2.2
2017-Nov-16 03:00N 45°36' W 073°30'0 0.0 120 / 4 3.1-2.1
2017-Nov-16 02:00N 45°36' W 073°30'0 0.0 130 / 8 2.9-2.0
2017-Nov-16 01:00N 45°36' W 073°30'0 0.0 140 / 12 3.2-2.1
2017-Nov-16 00:00N 45°36' W 073°30'0 0.0 250 / 1 3.2-2.2
2017-Nov-15 22:00N 45°36' W 073°30'0 0.0 260 / 1 5.0-1.4
2017-Nov-15 21:00N 45°36' W 073°30'0 0.0 130 / 5 5.2-1.9
2017-Nov-15 20:00N 45°36' W 073°30'0 0.0 130 / 8 5.6-1.8
2017-Nov-15 19:00N 45°36' W 073°30'0 0.0 140 / 4 5.6-1.1
2017-Nov-15 18:00N 45°36' W 073°30'0 0.0 140 / 6 5.2-1.1
2017-Nov-15 17:00N 45°36' W 073°30'0 0.0 130 / 2 4.0-1.3
2017-Nov-15 16:00N 45°36' W 073°30'0 0.0 160 / 3 3.6-1.2
2017-Nov-15 15:00N 45°36' W 073°30'0 0.0 140 / 5 1.9-1.9
2017-Nov-15 14:00N 45°36' W 073°30'0 0.0 140 / 4 0.4-1.8
2017-Nov-15 13:00N 45°36' W 073°30'1 1.3 150 / 4 -1.1-2.5
2017-Nov-15 12:22N 45°37' W 073°30'1 2.1
2017-Nov-15 12:00N 45°36' W 073°30'1 6.6 120 / 3 -2.5-3.0
2017-Nov-15 11:52N 45°37' W 073°30'1 0.9
2017-Nov-15 11:00N 45°36' W 073°30'0 0.0 070 / 1 -1.7-2.6
2017-Nov-15 10:00N 45°36' W 073°30'1 6.5 350 / 4 -0.5-0.9
2017-Nov-15 09:52N 45°37' W 073°30'1 0.9
2017-Nov-15 09:00N 45°36' W 073°30'0 0.0 350 / 5 -0.2-1.0
2017-Nov-15 08:00N 45°36' W 073°30'0 0.0 -0.3-1.9
2017-Nov-15 07:00N 45°36' W 073°30'1 0.9 340 / 3 0.7-0.4
2017-Nov-15 06:04N 45°37' W 073°30'111.3
2017-Nov-15 06:00N 45°36' W 073°30'112.2 340 / 2 0.6-1.0
2017-Nov-15 05:56N 45°37' W 073°30'6 6.9
2017-Nov-15 05:06N 45°31' W 073°32'214.5
2017-Nov-15 05:00N 45°30' W 073°30'126.4 010 / 4 0.9-2.1
2017-Nov-15 04:57N 45°30' W 073°31'1 1.5
2017-Nov-15 04:27N 45°30' W 073°31'1 1.6
2017-Nov-15 04:00N 45°29' W 073°31'1103.7
2017-Nov-15 04:00N 45°30' W 073°30'4 8.8 010 / 3 1.3-2.1
2017-Nov-15 03:30N 45°26' W 073°30'3 5.8
2017-Nov-15 03:00N 45°24' W 073°34'2168.9
2017-Nov-15 03:00N 45°24' W 073°36'1 2.8 070 / 3 2.4-1.5
2017-Nov-15 02:30N 45°24' W 073°34'1 2.6
2017-Nov-15 02:00N 45°24' W 073°36'152.9 050 / 4 2.3-1.9
2017-Nov-15 01:59N 45°24' W 073°37'3 6.3
2017-Nov-15 01:30N 45°25' W 073°41'4 8.0
2017-Nov-15 01:00N 45°24' W 073°47'171.2
2017-Nov-15 01:00N 45°24' W 073°48'4 7.2 080 / 6 2.7-1.3
2017-Nov-15 00:30N 45°21' W 073°51'4 7.1
2017-Nov-15 00:00N 45°19' W 073°55'181.5
2017-Nov-15 00:00N 45°18' W 073°54'1 2.5 250 / 1 2.0-2.3
2017-Nov-14 23:30N 45°19' W 073°55'1 1.5
2017-Nov-14 23:00N 45°18' W 073°56'171.4
2017-Nov-14 23:00N 45°18' W 073°54'1 2.6 160 / 2 2.4-1.8
2017-Nov-14 22:30N 45°18' W 073°56'3 5.2
2017-Nov-14 22:00N 45°16' W 073°58'3289.2
2017-Nov-14 22:00N 45°18' W 073°54'917.5 100 / 3 2.0-2.4
2017-Nov-14 21:28N 45°13' W 074°05'510.5
2017-Nov-14 21:00N 45°12' W 074°12'1010.4 070 / 8 2.8-3.3
2017-Nov-14 20:00N 45°06' W 074°24'1010.4 050 / 8 2.7-3.0
2017-Nov-14 19:00N 45°00' W 074°36'1010.4 040 / 7 2.5-2.7
2017-Nov-14 18:00N 44°54' W 074°48'4 4.3 080 / 7 2.1-3.8
2017-Nov-14 17:00N 44°54' W 074°54'18 6.0 070 / 3 1.4-3.5
2017-Nov-14 14:00N 44°48' W 075°18'4 4.3 010 / 2 0.2-2.9
2017-Nov-14 13:00N 44°48' W 075°24'1514.7 010 / 7 -0.1-2.7
2017-Nov-14 12:00N 44°36' W 075°36'1010.4 360 / 7 -0.3-2.6
2017-Nov-14 11:00N 44°30' W 075°48'1312.7 030 / 10 0.2-2.0
2017-Nov-14 10:00N 44°18' W 075°54'1414.2 060 / 71019.0 0.6-2.8
2017-Nov-14 09:00N 44°12' W 076°12'1010.5 020 / 61028.0 1.1-0.8
2017-Nov-14 08:00N 44°06' W 076°24'1312.8 360 / 101027.7 1.5-0.3
2017-Nov-14 07:00N 43°54' W 076°30'1414.3 030 / 101027.5 2.7-1.0
2017-Nov-14 06:00N 43°48' W 076°48'9 8.7 050 / 91027.5 3.7 0.6
2017-Nov-14 05:00N 43°48' W 077°00'2713.3 040 / 91027.6 4.5 1.0
2017-Nov-14 03:00N 43°42' W 077°36'1110.6 040 / 61027.9 5.0 0.9
2017-Nov-14 02:00N 43°36' W 077°48'1414.4 360 / 51028.3 5.1 2.2
2017-Nov-14 01:00N 43°30' W 078°06'1313.1 340 / 71028.3 4.9 2.8
2017-Nov-14 00:00N 43°30' W 078°24'1414.4 010 / 61028.2 4.9 3.5
2017-Nov-13 23:00N 43°24' W 078°42'9 8.7 250 / 61028.5 5.0 2.6
2017-Nov-13 22:00N 43°24' W 078°54'1414.4 260 / 61028.4 4.8 2.7
2017-Nov-13 21:00N 43°18' W 079°12'6 3.0 280 / 71028.5 4.7 2.4
2017-Nov-13 19:00N 43°12' W 079°12'0 0.0 330 / 31024.7 4.1 2.3
2017-Nov-13 18:00N 43°12' W 079°12'6 6.0 300 / 41022.9 3.8 2.5
2017-Nov-13 17:00N 43°06' W 079°12'0 0.0 320 / 5 3.6 2.9
2017-Nov-13 15:00N 43°06' W 079°12'6 6.0 310 / 5 2.2 1.9
2017-Nov-13 14:00N 43°00' W 079°12'6 6.0 330 / 5 1.9 1.4
2017-Nov-13 13:00N 42°54' W 079°12'7 7.4 330 / 41027.7 1.1 1.0
2017-Nov-13 12:00N 42°48' W 079°18'9 8.8 360 / 81027.0 2.3 1.5
2017-Nov-13 11:00N 42°48' W 079°30'1514.5 030 / 91026.7 2.2 1.5
2017-Nov-13 10:00N 42°42' W 079°48'1313.2 030 / 101026.4 2.7 2.2
2017-Nov-13 09:00N 42°42' W 080°06'7 7.4 040 / 101026.4 2.4 2.1
2017-Nov-13 08:00N 42°48' W 080°00'0 0.0 020 / 31026.4 1.1 1.0
2017-Nov-13 07:00N 42°48' W 080°00'0 0.0 010 / 21026.4 1.4 1.2
2017-Nov-13 06:00N 42°48' W 080°00'0 0.0 020 / 41026.7 1.2 1.1
2017-Nov-13 05:00N 42°48' W 080°00'0 0.0 020 / 31026.8 1.3 1.1
2017-Nov-13 04:00N 42°48' W 080°00'0 0.0 020 / 51026.9 1.4 1.1
2017-Nov-13 03:00N 42°48' W 080°00'0 0.0 020 / 41027.3 1.8 1.0
2017-Nov-13 02:00N 42°48' W 080°00'0 0.0 020 / 11027.2 2.2 0.9
2017-Nov-13 01:00N 42°48' W 080°00'0 0.0 010 / 11027.2 2.9 1.2
2017-Nov-13 00:00N 42°48' W 080°00'0 0.0 020 / 31027.3 3.3 2.1
2017-Nov-12 23:00N 42°48' W 080°00'0 0.0 020 / 11026.9 4.9 2.2
2017-Nov-12 22:00N 42°48' W 080°00'0 0.0 180 / 51026.4 5.5 1.6
2017-Nov-12 21:00N 42°48' W 080°00'0 0.0 160 / 41026.1 5.5 1.1
2017-Nov-12 20:00N 42°48' W 080°00'0 0.0 170 / 41026.0 5.5 0.9
2017-Nov-12 19:00N 42°48' W 080°00'0 0.0 180 / 21026.5 5.4-0.5
2017-Nov-12 18:00N 42°48' W 080°00'0 0.0 130 / 11026.8 5.1-1.3
2017-Nov-12 17:00N 42°48' W 080°00'0 0.0 220 / 21027.6 4.8-2.2
2017-Nov-12 16:00N 42°48' W 080°00'0 0.0 330 / 31028.0 4.1-3.1
2017-Nov-12 14:00N 42°48' W 080°00'0 0.0 330 / 31027.8 3.0-3.4
2017-Nov-12 13:00N 42°48' W 080°00'0 0.0 010 / 41027.6 2.2-4.7
2017-Nov-12 12:00N 42°48' W 080°00'0 0.0 330 / 41027.5 1.1-3.5
2017-Nov-12 08:00N 42°48' W 080°00'0 0.0 290 / 51026.7 2.3-4.0
2017-Nov-12 07:00N 42°48' W 080°00'7 7.4 250 / 61026.6 3.8-2.6
2017-Nov-12 06:00N 42°42' W 080°06'0 0.0 220 / 161026.5 3.7-4.6
2017-Nov-12 05:00N 42°42' W 080°06'0 0.0 220 / 161026.7 3.4-5.8
2017-Nov-12 04:00N 42°42' W 080°06'0 0.0 200 / 151026.9 3.5-5.4
2017-Nov-12 03:00N 42°42' W 080°06'0 0.0 190 / 151027.2 3.5-6.6
2017-Nov-12 02:00N 42°42' W 080°06'0 0.0 180 / 141027.3 3.6-8.0
2017-Nov-12 01:00N 42°42' W 080°06'0 0.0 010 / 101028.6 0.9-4.9
2017-Nov-12 00:00N 42°42' W 080°06'0 0.0 030 / 131028.9 0.6-5.5
2017-Nov-11 23:00N 42°42' W 080°06'0 0.0 100 / 71029.2 1.9-5.9
2017-Nov-11 22:00N 42°42' W 080°06'0 0.0 100 / 101029.4 1.3-5.7
2017-Nov-11 20:00N 42°42' W 080°06'0 0.0 090 / 131030.6 -0.0-6.1
2017-Nov-11 19:00N 42°42' W 080°06'0 0.0 080 / 111031.6 -0.4-6.1
2017-Nov-11 18:00N 42°42' W 080°06'0 0.0 090 / 121032.8 -0.8-6.0
2017-Nov-11 17:00N 42°42' W 080°06'0 0.0 100 / 151033.7 -1.3-6.5
2017-Nov-11 16:00N 42°42' W 080°06'0 0.0 100 / 141034.4 -1.6-6.4
2017-Nov-11 15:00N 42°42' W 080°06'0 0.0 070 / 191035.1 -1.8-4.1
2017-Nov-11 14:00N 42°42' W 080°06'0 0.0 060 / 181035.9 -3.0-6.9
2017-Nov-11 13:00N 42°42' W 080°06'0 0.0 040 / 171036.3 -3.6-8.1
2017-Nov-11 12:00N 42°42' W 080°06'0 0.0 040 / 171035.5 -3.7-7.3
2017-Nov-11 11:00N 42°42' W 080°06'0 0.0 040 / 151035.5 -4.0-7.4
2017-Nov-11 10:00N 42°42' W 080°06'2010.0 040 / 111035.4 -3.0-6.5
2017-Nov-11 08:00N 42°24' W 080°18'1110.7 040 / 131035.2 -2.3-7.8
2017-Nov-11 07:00N 42°18' W 080°30'1514.6 050 / 121035.5 -2.6-8.3
2017-Nov-11 06:00N 42°12' W 080°48'1313.3 050 / 131036.1 -2.6-8.9
2017-Nov-11 05:00N 42°12' W 081°06'1110.7 070 / 141035.9 -2.6-10.0
2017-Nov-11 04:00N 42°06' W 081°18'1514.7 060 / 161035.8 -2.6-9.6
2017-Nov-11 03:00N 42°00' W 081°36'1110.8 060 / 181035.7 -2.6-8.6
2017-Nov-11 02:00N 41°54' W 081°48'1313.4 050 / 171035.9 -2.6-9.3
2017-Nov-11 01:00N 41°54' W 082°06'1514.7 040 / 161036.2 -2.8-9.4
2017-Nov-11 00:00N 41°48' W 082°24'1110.8 030 / 161036.1 -2.7-8.5
2017-Nov-10 23:00N 41°54' W 082°36'1313.4 030 / 131036.5 -3.7-9.7
2017-Nov-10 22:00N 41°54' W 082°54'9 8.9 040 / 121036.3 -3.1-10.0
2017-Nov-10 21:00N 41°54' W 083°06'1212.0 020 / 101036.0 -3.4-11.8
2017-Nov-10 20:00N 42°06' W 083°06'1212.0 050 / 81035.7 -2.8-12.6
2017-Nov-10 19:00N 42°18' W 083°06'0 0.0 030 / 5 -3.2-13.3
2017-Nov-10 18:00N 42°18' W 083°06'0 0.0 030 / 6 -3.7-14.1
2017-Nov-10 17:00N 42°18' W 083°06'0 0.0 340 / 8 -4.7-14.4
2017-Nov-10 16:00N 42°18' W 083°06'0 0.0 340 / 7 -5.2-14.9
2017-Nov-10 15:00N 42°18' W 083°06'   330 / 8 -6.4-11.9
Track history (hours):
 
Tides and Currents Weather Stations Pressure Air Temp Water Temp Dewpoint Dewpoint Depression Visibility Wind Speed Wind Dir Waves Ship Positions

Algoscotia

Last reported at 2017-Nov-20 15:00 UTC. Time now 2017-Nov-21 15:19 UTC.
Position N 42°42' W 080°12'.

Length 148.8 m; beam 23.76 m; draft 3.6 m.

Type: Ship (hazmat cat B). MMSI: 316009560.

Wind from 250 at 21 knots

Barometer 1017.2 mb
Air temperature 3.4 ° C
Dewpoint -0.2 ° C

Date/timePositionNaut miles runAvg speedWind from/ knotsBaromVisibWave heightAir tempDewpointWater temp
2017-Nov-20 15:00N 42°42' W 080°12'0 0.0 250 / 211017.2 3.4-0.2
2017-Nov-20 14:00N 42°42' W 080°12'0 0.0 250 / 211017.3 2.4-1.5
2017-Nov-20 12:00N 42°42' W 080°12'11 5.3 250 / 191015.1 0.4-4.2
2017-Nov-20 10:00N 42°48' W 080°00'0 0.0 270 / 141014.3 -1.4-5.9
2017-Nov-20 09:00N 42°48' W 080°00'0 0.0 260 / 111013.8 -1.5-6.6
2017-Nov-20 08:00N 42°48' W 080°00'0 0.0 270 / 151013.7 -1.1-7.0
2017-Nov-20 07:00N 42°48' W 080°00'0 0.0 260 / 141013.0 -1.0-6.7
2017-Nov-20 06:00N 42°48' W 080°00'0 0.0 270 / 141012.7 -0.8-5.9
2017-Nov-20 05:00N 42°48' W 080°00'0 0.0 260 / 151012.1 -0.5-4.2
2017-Nov-20 04:00N 42°48' W 080°00'0 0.0 270 / 131011.6 -0.4-3.3
2017-Nov-20 03:00N 42°48' W 080°00'0 0.0 270 / 121011.1 0.1-4.2
2017-Nov-20 02:00N 42°48' W 080°00'0 0.0 290 / 41010.3 -0.9-2.3
2017-Nov-20 01:00N 42°48' W 080°00'0 0.0 300 / 71009.7 -0.9-2.4
2017-Nov-20 00:00N 42°48' W 080°00'0 0.0 280 / 101009.0 -0.6-2.5
2017-Nov-19 23:00N 42°48' W 080°00'0 0.0 300 / 121008.1 -0.1-3.0
2017-Nov-19 22:00N 42°48' W 080°00'0 0.0 310 / 141007.6 0.5-2.1
2017-Nov-19 21:00N 42°48' W 080°00'0 0.0 270 / 131006.2 1.2-1.9
2017-Nov-19 20:00N 42°48' W 080°00'0 0.0 280 / 131006.1 2.8-2.6
2017-Nov-19 19:00N 42°48' W 080°00'0 0.0 300 / 141005.0 2.6-2.1
2017-Nov-19 18:00N 42°48' W 080°00'0 0.0 280 / 131005.7 3.1-1.6
2017-Nov-19 17:00N 42°48' W 080°00'0 0.0 260 / 181005.2 3.0-1.3
2017-Nov-19 16:00N 42°48' W 080°00'0 0.0 260 / 201004.4 2.6-0.4
2017-Nov-19 15:00N 42°48' W 080°00'0 0.0 260 / 141004.2 3.1 0.1
2017-Nov-19 14:00N 42°48' W 080°00'0 0.0 280 / 71002.9 2.6-0.0
2017-Nov-19 13:00N 42°48' W 080°00'0 0.0 280 / 51001.8 2.2-0.4
2017-Nov-19 12:00N 42°48' W 080°00'0 0.0 300 / 121000.0 2.5-0.3
2017-Nov-19 11:00N 42°48' W 080°00'0 0.0 310 / 14998.7 2.7 0.2
2017-Nov-19 10:00N 42°48' W 080°00'0 0.0 300 / 14997.2 2.8-0.0
2017-Nov-19 09:00N 42°48' W 080°00'0 0.0 300 / 14995.1 2.9 0.7
2017-Nov-19 08:00N 42°48' W 080°00'0 0.0 300 / 12992.7 2.6 1.4
2017-Nov-19 07:00N 42°48' W 080°00'0 0.0 320 / 18989.1 2.2 1.5
2017-Nov-19 05:00N 42°48' W 080°00'0 0.0 330 / 18986.3 6.0 5.4
2017-Nov-19 04:00N 42°48' W 080°00'0 0.0 330 / 15985.3 7.5 7.3
2017-Nov-19 03:00N 42°48' W 080°00'0 0.0 010 / 11985.4 7.8 7.7
2017-Nov-19 02:00N 42°48' W 080°00'0 0.0 030 / 5986.0 8.4 8.3
2017-Nov-19 01:00N 42°48' W 080°00'0 0.0 230 / 1987.3 9.1 9.1
2017-Nov-19 00:00N 42°48' W 080°00'0 0.0 988.2 9.1 9.1
2017-Nov-18 23:00N 42°48' W 080°00'7 7.4 190 / 6989.4 9.1 9.1
2017-Nov-18 22:00N 42°42' W 080°06'4 4.4 160 / 12990.6 9.1 9.1
2017-Nov-18 21:00N 42°42' W 080°12'0 0.0 170 / 17991.8 8.9 8.8
2017-Nov-18 20:00N 42°42' W 080°12'0 0.0 170 / 17992.7 8.8 8.5
2017-Nov-18 19:00N 42°42' W 080°12'0 0.0 180 / 16994.2 8.6 7.8
2017-Nov-18 17:00N 42°42' W 080°12'0 0.0 190 / 22997.6 7.9 7.8
2017-Nov-18 16:00N 42°42' W 080°12'0 0.0 200 / 19998.5 8.1 7.6
2017-Nov-18 15:00N 42°42' W 080°12'0 0.0 200 / 25998.9 8.1 7.1
2017-Nov-18 11:00N 42°42' W 080°12'9 8.8 200 / 221002.4 7.1 5.0
2017-Nov-18 10:00N 42°42' W 080°00'2311.4 210 / 221003.2 7.7 3.8
2017-Nov-18 08:00N 42°48' W 079°30'9 8.8 190 / 221005.2 8.9 0.9
2017-Nov-18 07:00N 42°48' W 079°18'7 3.7 170 / 191007.1 8.0-1.2
2017-Nov-18 05:00N 42°54' W 079°12'1212.0 130 / 7 2.6-1.0
2017-Nov-18 04:00N 43°06' W 079°12'0 0.0 150 / 6 1.1-1.8
2017-Nov-18 03:00N 43°06' W 079°12'0 0.0 140 / 6 1.6-2.0
2017-Nov-18 02:00N 43°06' W 079°12'6 6.0 110 / 2 0.9-1.6
2017-Nov-18 01:00N 43°12' W 079°12'0 0.0 040 / 21011.6 1.3-1.6
2017-Nov-18 00:00N 43°12' W 079°12'0 0.0 120 / 51014.1 1.1-1.7
2017-Nov-17 23:00N 43°12' W 079°12'0 0.0 100 / 31017.3 1.4-2.1
2017-Nov-17 22:00N 43°12' W 079°12'6 6.0 110 / 51019.5 1.8-2.5
2017-Nov-17 21:00N 43°18' W 079°12'1414.4 140 / 41020.4 1.0-3.3
2017-Nov-17 20:00N 43°24' W 078°54'1110.6 260 / 51021.5 0.2-3.8
2017-Nov-17 19:00N 43°30' W 078°42'1313.1 260 / 121022.2 -0.3-4.4
2017-Nov-17 18:00N 43°30' W 078°24'1110.6 240 / 91023.0 -0.5-4.9
2017-Nov-17 17:00N 43°36' W 078°12'1313.0 300 / 121023.7 -1.3-6.9
2017-Nov-17 16:00N 43°36' W 077°54'1110.6 310 / 121024.3 -1.9-7.8
2017-Nov-17 15:00N 43°42' W 077°42'1313.0 310 / 141024.0 -2.4-8.1
2017-Nov-17 14:00N 43°42' W 077°24'1414.3 320 / 201023.6 -2.7-8.1
2017-Nov-17 13:00N 43°48' W 077°06'1110.5 320 / 181023.1 -3.9-9.7
2017-Nov-17 12:00N 43°54' W 076°54'1313.0 330 / 211021.8 -3.3-8.2
2017-Nov-17 11:00N 43°54' W 076°36'1514.8 320 / 191021.0 -2.3-6.0
2017-Nov-17 10:00N 44°06' W 076°24'1010.5 330 / 181019.9 -1.9-6.2
2017-Nov-17 09:00N 44°12' W 076°12'1010.5 330 / 151018.6 -1.7-6.4
2017-Nov-17 08:00N 44°18' W 076°00'7 7.4 310 / 131017.7 -1.1-5.5
2017-Nov-17 07:00N 44°24' W 075°54'7 7.4 320 / 16 -0.6-4.8
2017-Nov-17 06:00N 44°30' W 075°48'1514.7 310 / 14 -0.8-4.9
2017-Nov-17 05:00N 44°42' W 075°36'1010.4 330 / 20 -0.8-4.9
2017-Nov-17 04:00N 44°48' W 075°24'4 4.3 300 / 19 -0.1-3.5
2017-Nov-17 03:00N 44°48' W 075°18'7 7.4 300 / 14 0.5-3.0
2017-Nov-17 02:00N 44°54' W 075°12'1312.8 290 / 20 1.1-1.5
2017-Nov-17 01:00N 44°54' W 074°54'4 4.3 270 / 23 2.1 0.9
2017-Nov-17 00:00N 44°54' W 074°48'0 0.0 280 / 16 3.1 1.7
2017-Nov-16 22:00N 44°54' W 074°48'0 0.0 230 / 12 5.7 4.5
2017-Nov-16 21:00N 44°54' W 074°48'1010.4 240 / 12 6.3 4.2
2017-Nov-16 20:00N 45°00' W 074°36'7 7.3 220 / 14 6.8 4.5
2017-Nov-16 19:00N 45°06' W 074°30'1010.4 230 / 20 7.0 4.1
2017-Nov-16 18:00N 45°12' W 074°18'4 9.6 210 / 26 7.9 3.8
2017-Nov-16 17:35N 45°14' W 074°13'5 8.8
2017-Nov-16 17:00N 45°12' W 074°06'312.8 230 / 19 8.8 3.8
2017-Nov-16 16:45N 45°13' W 074°02'2 9.4
2017-Nov-16 16:30N 45°15' W 073°59'4 8.9
2017-Nov-16 16:01N 45°18' W 073°56'169.7
2017-Nov-16 16:00N 45°18' W 073°54'1 2.3 180 / 10 7.2 4.1
2017-Nov-16 15:31N 45°18' W 073°55'1 1.1
2017-Nov-16 15:01N 45°19' W 073°55'176.9
2017-Nov-16 15:00N 45°18' W 073°54'2 3.7 160 / 13 6.6 3.6
2017-Nov-16 14:30N 45°20' W 073°55'4 8.3
2017-Nov-16 14:00N 45°22' W 073°50'2543.6
2017-Nov-16 14:00N 45°24' W 073°48'3 6.5 160 / 17 5.9 3.2
2017-Nov-16 13:30N 45°24' W 073°44'3 6.6
2017-Nov-16 13:00N 45°24' W 073°39'2132.7
2017-Nov-16 13:00N 45°24' W 073°36'1 1.6 130 / 5 4.9 2.6
2017-Nov-16 12:31N 45°24' W 073°35'1 2.0
2017-Nov-16 12:01N 45°24' W 073°34'299.4
2017-Nov-16 12:00N 45°24' W 073°36'3 6.7 140 / 2 5.1 2.6
2017-Nov-16 11:31N 45°25' W 073°32'3 6.6
2017-Nov-16 11:00N 45°28' W 073°30'2 2.1
2017-Nov-16 10:00N 45°30' W 073°30'3 3.8 170 / 7 5.1 1.5
2017-Nov-16 09:15N 45°33' W 073°32'413.9
2017-Nov-16 09:00N 45°36' W 073°30'0 0.0 170 / 22 5.6 0.4
2017-Nov-16 08:00N 45°36' W 073°30'0 0.0 170 / 21 5.5-0.2
2017-Nov-16 07:00N 45°36' W 073°30'0 0.0 160 / 20 5.3-0.6
2017-Nov-16 06:00N 45°36' W 073°30'0 0.0 140 / 11 3.6-1.4
2017-Nov-16 05:00N 45°36' W 073°30'0 0.0 130 / 8 2.8-2.0
2017-Nov-16 04:00N 45°36' W 073°30'0 0.0 130 / 9 2.9-2.2
2017-Nov-16 03:00N 45°36' W 073°30'0 0.0 120 / 4 3.1-2.1
2017-Nov-16 02:00N 45°36' W 073°30'0 0.0 130 / 8 2.9-2.0
2017-Nov-16 01:00N 45°36' W 073°30'0 0.0 140 / 12 3.2-2.1
2017-Nov-16 00:00N 45°36' W 073°30'0 0.0 250 / 1 3.2-2.2
2017-Nov-15 22:00N 45°36' W 073°30'0 0.0 260 / 1 5.0-1.4
2017-Nov-15 21:00N 45°36' W 073°30'0 0.0 130 / 5 5.2-1.9
2017-Nov-15 20:00N 45°36' W 073°30'0 0.0 130 / 8 5.6-1.8
2017-Nov-15 19:00N 45°36' W 073°30'0 0.0 140 / 4 5.6-1.1
2017-Nov-15 18:00N 45°36' W 073°30'0 0.0 140 / 6 5.2-1.1
2017-Nov-15 17:00N 45°36' W 073°30'0 0.0 130 / 2 4.0-1.3
2017-Nov-15 16:00N 45°36' W 073°30'0 0.0 160 / 3 3.6-1.2
2017-Nov-15 15:00N 45°36' W 073°30'0 0.0 140 / 5 1.9-1.9
2017-Nov-15 14:00N 45°36' W 073°30'0 0.0 140 / 4 0.4-1.8
2017-Nov-15 13:00N 45°36' W 073°30'1 1.3 150 / 4 -1.1-2.5
2017-Nov-15 12:22N 45°37' W 073°30'1 2.1
2017-Nov-15 12:00N 45°36' W 073°30'1 6.6 120 / 3 -2.5-3.0
2017-Nov-15 11:52N 45°37' W 073°30'1 0.9
2017-Nov-15 11:00N 45°36' W 073°30'0 0.0 070 / 1 -1.7-2.6
2017-Nov-15 10:00N 45°36' W 073°30'1 6.5 350 / 4 -0.5-0.9
2017-Nov-15 09:52N 45°37' W 073°30'1 0.9
2017-Nov-15 09:00N 45°36' W 073°30'0 0.0 350 / 5 -0.2-1.0
2017-Nov-15 08:00N 45°36' W 073°30'0 0.0 -0.3-1.9
2017-Nov-15 07:00N 45°36' W 073°30'1 0.9 340 / 3 0.7-0.4
2017-Nov-15 06:04N 45°37' W 073°30'111.3
2017-Nov-15 06:00N 45°36' W 073°30'112.2 340 / 2 0.6-1.0
2017-Nov-15 05:56N 45°37' W 073°30'6 6.9
2017-Nov-15 05:06N 45°31' W 073°32'214.5
2017-Nov-15 05:00N 45°30' W 073°30'126.4 010 / 4 0.9-2.1
2017-Nov-15 04:57N 45°30' W 073°31'1 1.5
2017-Nov-15 04:27N 45°30' W 073°31'1 1.6
2017-Nov-15 04:00N 45°29' W 073°31'1103.7
2017-Nov-15 04:00N 45°30' W 073°30'4 8.8 010 / 3 1.3-2.1
2017-Nov-15 03:30N 45°26' W 073°30'3 5.8
2017-Nov-15 03:00N 45°24' W 073°34'2168.9
2017-Nov-15 03:00N 45°24' W 073°36'1 2.8 070 / 3 2.4-1.5
2017-Nov-15 02:30N 45°24' W 073°34'1 2.6
2017-Nov-15 02:00N 45°24' W 073°36'152.9 050 / 4 2.3-1.9
2017-Nov-15 01:59N 45°24' W 073°37'3 6.3
2017-Nov-15 01:30N 45°25' W 073°41'4 8.0
2017-Nov-15 01:00N 45°24' W 073°47'171.2
2017-Nov-15 01:00N 45°24' W 073°48'4 7.2 080 / 6 2.7-1.3
2017-Nov-15 00:30N 45°21' W 073°51'4 7.1
2017-Nov-15 00:00N 45°19' W 073°55'181.5
2017-Nov-15 00:00N 45°18' W 073°54'1 2.5 250 / 1 2.0-2.3
2017-Nov-14 23:30N 45°19' W 073°55'1 1.5
2017-Nov-14 23:00N 45°18' W 073°56'171.4
2017-Nov-14 23:00N 45°18' W 073°54'1 2.6 160 / 2 2.4-1.8
2017-Nov-14 22:30N 45°18' W 073°56'3 5.2
2017-Nov-14 22:00N 45°16' W 073°58'3289.2
2017-Nov-14 22:00N 45°18' W 073°54'917.5 100 / 3 2.0-2.4
2017-Nov-14 21:28N 45°13' W 074°05'510.5
2017-Nov-14 21:00N 45°12' W 074°12'1010.4 070 / 8 2.8-3.3
2017-Nov-14 20:00N 45°06' W 074°24'1010.4 050 / 8 2.7-3.0
2017-Nov-14 19:00N 45°00' W 074°36'1010.4 040 / 7 2.5-2.7
2017-Nov-14 18:00N 44°54' W 074°48'4 4.3 080 / 7 2.1-3.8
2017-Nov-14 17:00N 44°54' W 074°54'18 6.0 070 / 3 1.4-3.5
2017-Nov-14 14:00N 44°48' W 075°18'4 4.3 010 / 2 0.2-2.9
2017-Nov-14 13:00N 44°48' W 075°24'1514.7 010 / 7 -0.1-2.7
2017-Nov-14 12:00N 44°36' W 075°36'1010.4 360 / 7 -0.3-2.6
2017-Nov-14 11:00N 44°30' W 075°48'1312.7 030 / 10 0.2-2.0
2017-Nov-14 10:00N 44°18' W 075°54'1414.2 060 / 71019.0 0.6-2.8
2017-Nov-14 09:00N 44°12' W 076°12'1010.5 020 / 61028.0 1.1-0.8
2017-Nov-14 08:00N 44°06' W 076°24'1312.8 360 / 101027.7 1.5-0.3
2017-Nov-14 07:00N 43°54' W 076°30'1414.3 030 / 101027.5 2.7-1.0
2017-Nov-14 06:00N 43°48' W 076°48'9 8.7 050 / 91027.5 3.7 0.6
2017-Nov-14 05:00N 43°48' W 077°00'2713.3 040 / 91027.6 4.5 1.0
2017-Nov-14 03:00N 43°42' W 077°36'1110.6 040 / 61027.9 5.0 0.9
2017-Nov-14 02:00N 43°36' W 077°48'1414.4 360 / 51028.3 5.1 2.2
2017-Nov-14 01:00N 43°30' W 078°06'1313.1 340 / 71028.3 4.9 2.8
2017-Nov-14 00:00N 43°30' W 078°24'1414.4 010 / 61028.2 4.9 3.5
2017-Nov-13 23:00N 43°24' W 078°42'9 8.7 250 / 61028.5 5.0 2.6
2017-Nov-13 22:00N 43°24' W 078°54'1414.4 260 / 61028.4 4.8 2.7
2017-Nov-13 21:00N 43°18' W 079°12'6 3.0 280 / 71028.5 4.7 2.4
2017-Nov-13 19:00N 43°12' W 079°12'0 0.0 330 / 31024.7 4.1 2.3
2017-Nov-13 18:00N 43°12' W 079°12'6 6.0 300 / 41022.9 3.8 2.5
2017-Nov-13 17:00N 43°06' W 079°12'0 0.0 320 / 5 3.6 2.9
2017-Nov-13 15:00N 43°06' W 079°12'6 6.0 310 / 5 2.2 1.9
2017-Nov-13 14:00N 43°00' W 079°12'6 6.0 330 / 5 1.9 1.4
2017-Nov-13 13:00N 42°54' W 079°12'7 7.4 330 / 41027.7 1.1 1.0
2017-Nov-13 12:00N 42°48' W 079°18'9 8.8 360 / 81027.0 2.3 1.5
2017-Nov-13 11:00N 42°48' W 079°30'1514.5 030 / 91026.7 2.2 1.5
2017-Nov-13 10:00N 42°42' W 079°48'1313.2 030 / 101026.4 2.7 2.2
2017-Nov-13 09:00N 42°42' W 080°06'7 7.4 040 / 101026.4 2.4 2.1
2017-Nov-13 08:00N 42°48' W 080°00'0 0.0 020 / 31026.4 1.1 1.0
2017-Nov-13 07:00N 42°48' W 080°00'0 0.0 010 / 21026.4 1.4 1.2
2017-Nov-13 06:00N 42°48' W 080°00'0 0.0 020 / 41026.7 1.2 1.1
2017-Nov-13 05:00N 42°48' W 080°00'0 0.0 020 / 31026.8 1.3 1.1
2017-Nov-13 04:00N 42°48' W 080°00'0 0.0 020 / 51026.9 1.4 1.1
2017-Nov-13 03:00N 42°48' W 080°00'0 0.0 020 / 41027.3 1.8 1.0
2017-Nov-13 02:00N 42°48' W 080°00'0 0.0 020 / 11027.2 2.2 0.9
2017-Nov-13 01:00N 42°48' W 080°00'0 0.0 010 / 11027.2 2.9 1.2
2017-Nov-13 00:00N 42°48' W 080°00'0 0.0 020 / 31027.3 3.3 2.1
2017-Nov-12 23:00N 42°48' W 080°00'0 0.0 020 / 11026.9 4.9 2.2
2017-Nov-12 22:00N 42°48' W 080°00'0 0.0 180 / 51026.4 5.5 1.6
2017-Nov-12 21:00N 42°48' W 080°00'0 0.0 160 / 41026.1 5.5 1.1
2017-Nov-12 20:00N 42°48' W 080°00'0 0.0 170 / 41026.0 5.5 0.9
2017-Nov-12 19:00N 42°48' W 080°00'0 0.0 180 / 21026.5 5.4-0.5
2017-Nov-12 18:00N 42°48' W 080°00'0 0.0 130 / 11026.8 5.1-1.3
2017-Nov-12 17:00N 42°48' W 080°00'0 0.0 220 / 21027.6 4.8-2.2
2017-Nov-12 16:00N 42°48' W 080°00'0 0.0 330 / 31028.0 4.1-3.1
2017-Nov-12 14:00N 42°48' W 080°00'0 0.0 330 / 31027.8 3.0-3.4
2017-Nov-12 13:00N 42°48' W 080°00'0 0.0 010 / 41027.6 2.2-4.7
2017-Nov-12 12:00N 42°48' W 080°00'0 0.0 330 / 41027.5 1.1-3.5
2017-Nov-12 08:00N 42°48' W 080°00'0 0.0 290 / 51026.7 2.3-4.0
2017-Nov-12 07:00N 42°48' W 080°00'7 7.4 250 / 61026.6 3.8-2.6
2017-Nov-12 06:00N 42°42' W 080°06'0 0.0 220 / 161026.5 3.7-4.6
2017-Nov-12 05:00N 42°42' W 080°06'0 0.0 220 / 161026.7 3.4-5.8
2017-Nov-12 04:00N 42°42' W 080°06'0 0.0 200 / 151026.9 3.5-5.4
2017-Nov-12 03:00N 42°42' W 080°06'0 0.0 190 / 151027.2 3.5-6.6
2017-Nov-12 02:00N 42°42' W 080°06'0 0.0 180 / 141027.3 3.6-8.0
2017-Nov-12 01:00N 42°42' W 080°06'0 0.0 010 / 101028.6 0.9-4.9
2017-Nov-12 00:00N 42°42' W 080°06'0 0.0 030 / 131028.9 0.6-5.5
2017-Nov-11 23:00N 42°42' W 080°06'0 0.0 100 / 71029.2 1.9-5.9
2017-Nov-11 22:00N 42°42' W 080°06'0 0.0 100 / 101029.4 1.3-5.7
2017-Nov-11 20:00N 42°42' W 080°06'0 0.0 090 / 131030.6 -0.0-6.1
2017-Nov-11 19:00N 42°42' W 080°06'0 0.0 080 / 111031.6 -0.4-6.1
2017-Nov-11 18:00N 42°42' W 080°06'0 0.0 090 / 121032.8 -0.8-6.0
2017-Nov-11 17:00N 42°42' W 080°06'0 0.0 100 / 151033.7 -1.3-6.5
2017-Nov-11 16:00N 42°42' W 080°06'0 0.0 100 / 141034.4 -1.6-6.4
2017-Nov-11 15:00N 42°42' W 080°06'0 0.0 070 / 191035.1 -1.8-4.1
2017-Nov-11 14:00N 42°42' W 080°06'0 0.0 060 / 181035.9 -3.0-6.9
2017-Nov-11 13:00N 42°42' W 080°06'0 0.0 040 / 171036.3 -3.6-8.1
2017-Nov-11 12:00N 42°42' W 080°06'0 0.0 040 / 171035.5 -3.7-7.3
2017-Nov-11 11:00N 42°42' W 080°06'0 0.0 040 / 151035.5 -4.0-7.4
2017-Nov-11 10:00N 42°42' W 080°06'2010.0 040 / 111035.4 -3.0-6.5
2017-Nov-11 08:00N 42°24' W 080°18'1110.7 040 / 131035.2 -2.3-7.8
2017-Nov-11 07:00N 42°18' W 080°30'1514.6 050 / 121035.5 -2.6-8.3
2017-Nov-11 06:00N 42°12' W 080°48'1313.3 050 / 131036.1 -2.6-8.9
2017-Nov-11 05:00N 42°12' W 081°06'1110.7 070 / 141035.9 -2.6-10.0
2017-Nov-11 04:00N 42°06' W 081°18'1514.7 060 / 161035.8 -2.6-9.6
2017-Nov-11 03:00N 42°00' W 081°36'1110.8 060 / 181035.7 -2.6-8.6
2017-Nov-11 02:00N 41°54' W 081°48'1313.4 050 / 171035.9 -2.6-9.3
2017-Nov-11 01:00N 41°54' W 082°06'1514.7 040 / 161036.2 -2.8-9.4
2017-Nov-11 00:00N 41°48' W 082°24'1110.8 030 / 161036.1 -2.7-8.5
2017-Nov-10 23:00N 41°54' W 082°36'1313.4 030 / 131036.5 -3.7-9.7
2017-Nov-10 22:00N 41°54' W 082°54'9 8.9 040 / 121036.3 -3.1-10.0
2017-Nov-10 21:00N 41°54' W 083°06'1212.0 020 / 101036.0 -3.4-11.8
2017-Nov-10 20:00N 42°06' W 083°06'1212.0 050 / 81035.7 -2.8-12.6
2017-Nov-10 19:00N 42°18' W 083°06'0 0.0 030 / 5 -3.2-13.3
2017-Nov-10 18:00N 42°18' W 083°06'0 0.0 030 / 6 -3.7-14.1
2017-Nov-10 17:00N 42°18' W 083°06'0 0.0 340 / 8 -4.7-14.4
2017-Nov-10 16:00N 42°18' W 083°06'0 0.0 340 / 7 -5.2-14.9
2017-Nov-10 15:00N 42°18' W 083°06'   330 / 8 -6.4-11.9

Dump ship's entire track history